sensor_id;sensor_type;location;lat;lon;timestamp;pressure;altitude;pressure_sealevel;temperature;humidity
30714;BME280;17465;47.934;33.430;2022-09-17T00:00:12;99286.23;;;16.24;100.00
30714;BME280;17465;47.934;33.430;2022-09-17T00:02:43;99284.08;;;16.27;100.00
30714;BME280;17465;47.934;33.430;2022-09-17T00:05:13;99288.32;;;16.30;100.00
30714;BME280;17465;47.934;33.430;2022-09-17T00:07:43;99288.32;;;16.30;100.00
30714;BME280;17465;47.934;33.430;2022-09-17T00:10:14;99273.63;;;16.24;100.00
30714;BME280;17465;47.934;33.430;2022-09-17T00:12:46;99271.98;;;16.32;100.00
30714;BME280;17465;47.934;33.430;2022-09-17T00:15:17;99287.27;;;16.38;100.00
30714;BME280;17465;47.934;33.430;2022-09-17T00:17:52;99287.27;;;16.38;100.00
30714;BME280;17465;47.934;33.430;2022-09-17T00:20:19;99279.45;;;16.38;100.00
30714;BME280;17465;47.934;33.430;2022-09-17T00:22:50;99279.77;;;16.46;100.00
30714;BME280;17465;47.934;33.430;2022-09-17T00:25:20;99282.17;;;16.47;100.00
30714;BME280;17465;47.934;33.430;2022-09-17T00:27:50;99279.72;;;16.59;100.00
30714;BME280;17465;47.934;33.430;2022-09-17T00:30:20;99282.92;;;16.57;100.00
30714;BME280;17465;47.934;33.430;2022-09-17T00:32:51;99261.83;;;16.24;100.00
30714;BME280;17465;47.934;33.430;2022-09-17T00:35:21;99267.50;;;16.15;100.00
30714;BME280;17465;47.934;33.430;2022-09-17T00:37:51;99295.49;;;16.15;100.00
30714;BME280;17465;47.934;33.430;2022-09-17T00:40:22;99269.50;;;16.01;100.00
30714;BME280;17465;47.934;33.430;2022-09-17T00:42:52;99269.06;;;15.99;100.00
30714;BME280;17465;47.934;33.430;2022-09-17T00:45:23;99268.48;;;16.00;100.00
30714;BME280;17465;47.934;33.430;2022-09-17T00:50:47;99263.46;;;15.74;100.00
30714;BME280;17465;47.934;33.430;2022-09-17T00:53:20;99259.75;;;15.66;100.00
30714;BME280;17465;47.934;33.430;2022-09-17T00:56:02;99274.82;;;15.71;100.00
30714;BME280;17465;47.934;33.430;2022-09-17T00:58:34;99274.82;;;15.71;100.00
30714;BME280;17465;47.934;33.430;2022-09-17T01:01:07;99264.77;;;15.67;100.00
30714;BME280;17465;47.934;33.430;2022-09-17T01:03:37;99264.77;;;15.67;100.00
30714;BME280;17465;47.934;33.430;2022-09-17T01:06:34;99269.45;;;15.59;100.00
30714;BME280;17465;47.934;33.430;2022-09-17T01:09:10;99276.44;;;15.59;100.00
30714;BME280;17465;47.934;33.430;2022-09-17T01:17:50;99259.14;;;15.41;100.00
30714;BME280;17465;47.934;33.430;2022-09-17T01:20:45;99269.84;;;15.35;100.00
30714;BME280;17465;47.934;33.430;2022-09-17T01:40:12;99273.67;;;15.27;100.00
30714;BME280;17465;47.934;33.430;2022-09-17T01:45:27;99272.06;;;15.26;100.00
30714;BME280;17465;47.934;33.430;2022-09-17T01:48:02;99263.16;;;15.21;100.00
30714;BME280;17465;47.934;33.430;2022-09-17T01:50:44;99270.72;;;15.20;100.00
30714;BME280;17465;47.934;33.430;2022-09-17T01:53:11;99275.78;;;15.24;100.00
30714;BME280;17465;47.934;33.430;2022-09-17T01:58:39;99285.78;;;15.25;100.00
30714;BME280;17465;47.934;33.430;2022-09-17T02:01:10;99286.97;;;15.24;100.00
30714;BME280;17465;47.934;33.430;2022-09-17T02:03:45;99286.97;;;15.24;100.00
30714;BME280;17465;47.934;33.430;2022-09-17T02:06:19;99283.89;;;15.20;100.00
30714;BME280;17465;47.934;33.430;2022-09-17T02:09:01;99280.17;;;15.12;100.00
30714;BME280;17465;47.934;33.430;2022-09-17T02:11:30;99277.81;;;15.14;100.00
30714;BME280;17465;47.934;33.430;2022-09-17T02:14:07;99277.81;;;15.14;100.00
30714;BME280;17465;47.934;33.430;2022-09-17T02:16:41;99286.42;;;15.15;100.00
30714;BME280;17465;47.934;33.430;2022-09-17T02:19:22;99280.39;;;15.13;100.00
30714;BME280;17465;47.934;33.430;2022-09-17T02:25:00;99288.61;;;15.16;100.00
30714;BME280;17465;47.934;33.430;2022-09-17T02:27:36;99288.61;;;15.16;100.00
30714;BME280;17465;47.934;33.430;2022-09-17T02:30:24;99279.88;;;15.17;100.00
30714;BME280;17465;47.934;33.430;2022-09-17T02:32:55;99277.43;;;15.16;100.00
30714;BME280;17465;47.934;33.430;2022-09-17T02:35:25;99279.56;;;15.13;100.00
30714;BME280;17465;47.934;33.430;2022-09-17T02:37:56;99279.56;;;15.13;100.00
30714;BME280;17465;47.934;33.430;2022-09-17T02:40:34;99268.14;;;15.21;100.00
30714;BME280;17465;47.934;33.430;2022-09-17T02:43:20;99264.38;;;15.23;100.00
30714;BME280;17465;47.934;33.430;2022-09-17T02:46:06;99269.27;;;15.17;100.00
30714;BME280;17465;47.934;33.430;2022-09-17T02:57:16;99265.12;;;15.39;100.00
30714;BME280;17465;47.934;33.430;2022-09-17T03:02:31;99254.34;;;15.41;100.00
30714;BME280;17465;47.934;33.430;2022-09-17T03:05:03;99263.89;;;15.50;100.00
30714;BME280;17465;47.934;33.430;2022-09-17T03:07:36;99263.89;;;15.50;100.00
30714;BME280;17465;47.934;33.430;2022-09-17T03:10:07;99270.94;;;15.53;100.00
30714;BME280;17465;47.934;33.430;2022-09-17T03:12:37;99278.20;;;15.58;100.00
30714;BME280;17465;47.934;33.430;2022-09-17T03:15:08;99277.63;;;15.58;100.00
30714;BME280;17465;47.934;33.430;2022-09-17T03:17:39;99280.91;;;15.64;100.00
30714;BME280;17465;47.934;33.430;2022-09-17T03:20:09;99280.91;;;15.64;100.00
30714;BME280;17465;47.934;33.430;2022-09-17T03:22:41;99258.86;;;15.72;100.00
30714;BME280;17465;47.934;33.430;2022-09-17T03:25:17;99259.17;;;15.67;100.00
30714;BME280;17465;47.934;33.430;2022-09-17T03:27:44;99257.33;;;15.78;100.00
30714;BME280;17465;47.934;33.430;2022-09-17T03:30:14;99257.33;;;15.78;100.00
30714;BME280;17465;47.934;33.430;2022-09-17T03:32:49;99264.55;;;15.79;100.00
30714;BME280;17465;47.934;33.430;2022-09-17T03:35:16;99264.92;;;15.90;100.00
30714;BME280;17465;47.934;33.430;2022-09-17T03:37:49;99262.02;;;15.96;100.00
30714;BME280;17465;47.934;33.430;2022-09-17T03:40:20;99270.36;;;16.05;100.00
30714;BME280;17465;47.934;33.430;2022-09-17T03:42:54;99270.36;;;16.05;100.00
30714;BME280;17465;47.934;33.430;2022-09-17T03:45:31;99271.05;;;16.12;100.00
30714;BME280;17465;47.934;33.430;2022-09-17T03:48:04;99275.56;;;16.07;100.00
30714;BME280;17465;47.934;33.430;2022-09-17T03:50:37;99275.56;;;16.07;100.00
30714;BME280;17465;47.934;33.430;2022-09-17T03:53:07;99272.77;;;16.20;100.00
30714;BME280;17465;47.934;33.430;2022-09-17T03:55:41;99272.77;;;16.20;100.00
30714;BME280;17465;47.934;33.430;2022-09-17T03:58:12;99276.00;;;16.09;100.00
30714;BME280;17465;47.934;33.430;2022-09-17T04:00:42;99276.00;;;16.09;100.00
30714;BME280;17465;47.934;33.430;2022-09-17T04:03:13;99274.89;;;16.13;100.00
30714;BME280;17465;47.934;33.430;2022-09-17T04:05:45;99274.89;;;16.13;100.00
30714;BME280;17465;47.934;33.430;2022-09-17T04:08:15;99276.11;;;16.16;100.00
30714;BME280;17465;47.934;33.430;2022-09-17T04:10:47;99289.25;;;16.25;100.00
30714;BME280;17465;47.934;33.430;2022-09-17T04:13:18;99279.98;;;16.21;100.00
30714;BME280;17465;47.934;33.430;2022-09-17T04:15:52;99281.60;;;16.22;100.00
30714;BME280;17465;47.934;33.430;2022-09-17T04:18:24;99281.60;;;16.22;100.00
30714;BME280;17465;47.934;33.430;2022-09-17T04:20:55;99285.69;;;16.15;100.00
30714;BME280;17465;47.934;33.430;2022-09-17T04:23:25;99290.65;;;16.25;100.00
30714;BME280;17465;47.934;33.430;2022-09-17T04:25:56;99290.65;;;16.25;100.00
30714;BME280;17465;47.934;33.430;2022-09-17T04:28:27;99282.86;;;16.37;100.00
30714;BME280;17465;47.934;33.430;2022-09-17T04:30:58;99293.23;;;16.37;100.00
30714;BME280;17465;47.934;33.430;2022-09-17T04:33:33;99283.54;;;16.44;100.00
30714;BME280;17465;47.934;33.430;2022-09-17T04:36:04;99290.76;;;16.32;100.00
30714;BME280;17465;47.934;33.430;2022-09-17T04:38:34;99278.27;;;16.26;100.00
30714;BME280;17465;47.934;33.430;2022-09-17T04:41:06;99285.80;;;16.35;100.00
30714;BME280;17465;47.934;33.430;2022-09-17T04:43:39;99285.80;;;16.35;100.00
30714;BME280;17465;47.934;33.430;2022-09-17T04:46:10;99271.80;;;16.35;100.00
30714;BME280;17465;47.934;33.430;2022-09-17T04:48:51;99278.52;;;16.73;100.00
30714;BME280;17465;47.934;33.430;2022-09-17T04:51:21;99280.61;;;16.83;100.00
30714;BME280;17465;47.934;33.430;2022-09-17T04:54:10;99280.61;;;16.83;100.00
30714;BME280;17465;47.934;33.430;2022-09-17T04:56:30;99289.78;;;16.80;100.00
30714;BME280;17465;47.934;33.430;2022-09-17T04:59:06;99287.72;;;16.90;100.00
30714;BME280;17465;47.934;33.430;2022-09-17T05:02:14;99287.72;;;16.90;100.00
30714;BME280;17465;47.934;33.430;2022-09-17T05:04:40;99274.16;;;16.62;100.00
30714;BME280;17465;47.934;33.430;2022-09-17T05:07:12;99273.27;;;16.71;100.00
30714;BME280;17465;47.934;33.430;2022-09-17T05:09:43;99265.11;;;16.76;100.00
30714;BME280;17465;47.934;33.430;2022-09-17T05:12:15;99272.23;;;17.02;100.00
30714;BME280;17465;47.934;33.430;2022-09-17T05:14:45;99257.47;;;17.09;100.00
30714;BME280;17465;47.934;33.430;2022-09-17T05:17:17;99257.47;;;17.09;100.00
30714;BME280;17465;47.934;33.430;2022-09-17T05:19:47;99269.06;;;17.24;100.00
30714;BME280;17465;47.934;33.430;2022-09-17T05:22:19;99284.11;;;17.29;100.00
30714;BME280;17465;47.934;33.430;2022-09-17T05:24:55;99279.30;;;17.26;100.00
30714;BME280;17465;47.934;33.430;2022-09-17T05:27:25;99277.55;;;17.31;100.00
30714;BME280;17465;47.934;33.430;2022-09-17T05:30:01;99266.05;;;17.23;100.00
30714;BME280;17465;47.934;33.430;2022-09-17T05:32:29;99260.05;;;17.44;100.00
30714;BME280;17465;47.934;33.430;2022-09-17T05:35:16;99267.42;;;17.59;100.00
30714;BME280;17465;47.934;33.430;2022-09-17T05:37:47;99270.66;;;17.65;100.00
30714;BME280;17465;47.934;33.430;2022-09-17T05:40:20;99270.66;;;17.65;100.00
30714;BME280;17465;47.934;33.430;2022-09-17T05:42:52;99265.38;;;17.56;100.00
30714;BME280;17465;47.934;33.430;2022-09-17T05:45:37;99272.86;;;17.65;100.00
30714;BME280;17465;47.934;33.430;2022-09-17T05:48:13;99272.86;;;17.65;100.00
30714;BME280;17465;47.934;33.430;2022-09-17T05:50:43;99278.22;;;17.57;100.00
30714;BME280;17465;47.934;33.430;2022-09-17T05:53:13;99281.70;;;17.67;100.00
30714;BME280;17465;47.934;33.430;2022-09-17T05:55:45;99287.15;;;17.70;100.00
30714;BME280;17465;47.934;33.430;2022-09-17T05:58:17;99287.15;;;17.70;100.00
30714;BME280;17465;47.934;33.430;2022-09-17T06:00:47;99288.89;;;17.61;100.00
30714;BME280;17465;47.934;33.430;2022-09-17T06:03:26;99292.52;;;17.89;100.00
30714;BME280;17465;47.934;33.430;2022-09-17T06:05:56;99292.52;;;17.89;100.00
30714;BME280;17465;47.934;33.430;2022-09-17T06:08:28;99285.93;;;17.94;100.00
30714;BME280;17465;47.934;33.430;2022-09-17T06:11:03;99293.01;;;18.01;100.00
30714;BME280;17465;47.934;33.430;2022-09-17T06:13:34;99293.01;;;18.01;100.00
30714;BME280;17465;47.934;33.430;2022-09-17T06:16:05;99294.20;;;18.00;100.00
30714;BME280;17465;47.934;33.430;2022-09-17T06:18:36;99299.92;;;18.17;100.00
30714;BME280;17465;47.934;33.430;2022-09-17T06:21:06;99299.92;;;18.17;100.00
30714;BME280;17465;47.934;33.430;2022-09-17T06:23:37;99293.15;;;18.22;100.00
30714;BME280;17465;47.934;33.430;2022-09-17T06:26:13;99292.41;;;18.28;100.00
30714;BME280;17465;47.934;33.430;2022-09-17T06:28:45;99294.77;;;18.23;100.00
30714;BME280;17465;47.934;33.430;2022-09-17T06:31:18;99294.77;;;18.23;100.00
30714;BME280;17465;47.934;33.430;2022-09-17T06:33:48;99294.92;;;18.20;100.00
30714;BME280;17465;47.934;33.430;2022-09-17T06:36:18;99294.92;;;18.20;100.00
30714;BME280;17465;47.934;33.430;2022-09-17T06:38:49;99303.92;;;18.81;100.00
30714;BME280;17465;47.934;33.430;2022-09-17T06:41:23;99303.92;;;18.81;100.00
30714;BME280;17465;47.934;33.430;2022-09-17T06:43:56;99305.36;;;18.88;100.00
30714;BME280;17465;47.934;33.430;2022-09-17T06:46:28;99305.36;;;18.88;100.00
30714;BME280;17465;47.934;33.430;2022-09-17T06:48:59;99305.56;;;19.75;100.00
30714;BME280;17465;47.934;33.430;2022-09-17T06:51:30;99304.12;;;19.43;100.00
30714;BME280;17465;47.934;33.430;2022-09-17T06:54:01;99304.12;;;19.43;100.00
30714;BME280;17465;47.934;33.430;2022-09-17T06:56:31;99301.14;;;19.84;100.00
30714;BME280;17465;47.934;33.430;2022-09-17T06:59:02;99298.55;;;19.78;100.00
30714;BME280;17465;47.934;33.430;2022-09-17T07:01:33;99305.37;;;19.91;100.00
30714;BME280;17465;47.934;33.430;2022-09-17T07:04:04;99301.34;;;19.85;100.00
30714;BME280;17465;47.934;33.430;2022-09-17T07:06:41;99301.34;;;19.85;100.00
30714;BME280;17465;47.934;33.430;2022-09-17T07:09:14;99314.84;;;19.82;100.00
30714;BME280;17465;47.934;33.430;2022-09-17T07:11:45;99319.69;;;20.03;100.00
30714;BME280;17465;47.934;33.430;2022-09-17T07:14:23;99314.44;;;19.91;100.00
30714;BME280;17465;47.934;33.430;2022-09-17T07:16:54;99314.44;;;19.91;100.00
30714;BME280;17465;47.934;33.430;2022-09-17T07:19:24;99312.05;;;20.03;100.00
30714;BME280;17465;47.934;33.430;2022-09-17T07:21:55;99316.45;;;20.18;100.00
30714;BME280;17465;47.934;33.430;2022-09-17T07:24:26;99321.09;;;20.10;100.00
30714;BME280;17465;47.934;33.430;2022-09-17T07:27:05;99321.09;;;20.10;100.00
30714;BME280;17465;47.934;33.430;2022-09-17T07:29:41;99318.86;;;20.09;100.00
30714;BME280;17465;47.934;33.430;2022-09-17T07:32:19;99312.41;;;19.84;100.00
30714;BME280;17465;47.934;33.430;2022-09-17T07:38:03;99311.60;;;19.87;100.00
30714;BME280;17465;47.934;33.430;2022-09-17T07:40:37;99309.00;;;19.60;100.00
30714;BME280;17465;47.934;33.430;2022-09-17T07:43:08;99304.36;;;19.76;100.00
30714;BME280;17465;47.934;33.430;2022-09-17T07:45:52;99301.16;;;19.77;100.00
30714;BME280;17465;47.934;33.430;2022-09-17T07:48:48;99303.56;;;19.75;100.00
30714;BME280;17465;47.934;33.430;2022-09-17T07:51:47;99303.56;;;19.75;100.00
30714;BME280;17465;47.934;33.430;2022-09-17T07:54:17;99308.55;;;19.44;100.00
30714;BME280;17465;47.934;33.430;2022-09-17T07:56:48;99310.98;;;19.49;100.00
30714;BME280;17465;47.934;33.430;2022-09-17T07:59:31;99305.36;;;19.60;100.00
30714;BME280;17465;47.934;33.430;2022-09-17T08:02:17;99308.58;;;19.76;100.00
30714;BME280;17465;47.934;33.430;2022-09-17T08:04:41;99306.95;;;19.40;100.00
30714;BME280;17465;47.934;33.430;2022-09-17T08:07:34;99298.51;;;19.36;100.00
30714;BME280;17465;47.934;33.430;2022-09-17T08:10:11;99298.51;;;19.36;100.00
30714;BME280;17465;47.934;33.430;2022-09-17T08:12:42;99298.09;;;19.38;100.00
30714;BME280;17465;47.934;33.430;2022-09-17T08:15:17;99299.94;;;19.57;100.00
30714;BME280;17465;47.934;33.430;2022-09-17T08:24:15;99288.02;;;19.23;100.00
30714;BME280;17465;47.934;33.430;2022-09-17T08:26:52;99288.02;;;19.23;100.00
30714;BME280;17465;47.934;33.430;2022-09-17T08:29:27;99282.93;;;19.12;100.00
30714;BME280;17465;47.934;33.430;2022-09-17T08:31:59;99282.93;;;19.12;100.00
30714;BME280;17465;47.934;33.430;2022-09-17T08:34:38;99276.58;;;18.71;100.00
30714;BME280;17465;47.934;33.430;2022-09-17T08:37:08;99264.48;;;18.60;100.00
30714;BME280;17465;47.934;33.430;2022-09-17T08:39:47;99270.34;;;18.75;100.00
30714;BME280;17465;47.934;33.430;2022-09-17T08:45:31;99268.36;;;18.75;100.00
30714;BME280;17465;47.934;33.430;2022-09-17T08:48:07;99285.14;;;18.58;100.00
30714;BME280;17465;47.934;33.430;2022-09-17T08:50:46;99285.14;;;18.58;100.00
30714;BME280;17465;47.934;33.430;2022-09-17T08:56:19;99320.20;;;18.44;100.00
30714;BME280;17465;47.934;33.430;2022-09-17T09:01:58;99289.25;;;18.40;100.00
30714;BME280;17465;47.934;33.430;2022-09-17T09:08:46;99291.67;;;18.83;100.00
30714;BME280;17465;47.934;33.430;2022-09-17T09:11:34;99289.28;;;18.85;100.00
30714;BME280;17465;47.934;33.430;2022-09-17T09:14:36;99265.41;;;18.92;100.00
30714;BME280;17465;47.934;33.430;2022-09-17T09:17:14;99275.05;;;18.98;100.00
30714;BME280;17465;47.934;33.430;2022-09-17T09:19:45;99271.27;;;19.03;100.00
30714;BME280;17465;47.934;33.430;2022-09-17T09:34:26;99265.72;;;19.31;100.00
30714;BME280;17465;47.934;33.430;2022-09-17T09:37:28;99265.72;;;19.31;100.00
30714;BME280;17465;47.934;33.430;2022-09-17T09:40:12;99266.61;;;18.98;100.00
30714;BME280;17465;47.934;33.430;2022-09-17T09:42:36;99266.61;;;18.98;100.00
30714;BME280;17465;47.934;33.430;2022-09-17T09:45:24;99271.68;;;19.09;100.00
30714;BME280;17465;47.934;33.430;2022-09-17T09:57:16;99255.91;;;19.55;100.00
30714;BME280;17465;47.934;33.430;2022-09-17T10:03:10;99247.08;;;21.70;100.00
30714;BME280;17465;47.934;33.430;2022-09-17T10:06:05;99240.84;;;22.11;100.00
30714;BME280;17465;47.934;33.430;2022-09-17T10:08:17;99239.53;;;22.19;100.00
30714;BME280;17465;47.934;33.430;2022-09-17T10:11:11;99239.53;;;22.19;100.00
30714;BME280;17465;47.934;33.430;2022-09-17T10:13:37;99232.70;;;22.16;100.00
30714;BME280;17465;47.934;33.430;2022-09-17T10:16:24;99232.43;;;22.44;100.00
30714;BME280;17465;47.934;33.430;2022-09-17T10:21:41;99228.97;;;22.78;100.00
30714;BME280;17465;47.934;33.430;2022-09-17T10:24:26;99230.09;;;22.32;100.00
30714;BME280;17465;47.934;33.430;2022-09-17T10:30:15;99224.47;;;22.14;100.00
30714;BME280;17465;47.934;33.430;2022-09-17T10:36:05;99207.50;;;22.14;100.00
30714;BME280;17465;47.934;33.430;2022-09-17T10:38:39;99207.50;;;22.14;100.00
30714;BME280;17465;47.934;33.430;2022-09-17T10:43:49;99196.77;;;21.98;100.00
30714;BME280;17465;47.934;33.430;2022-09-17T10:46:46;99195.74;;;22.37;100.00
30714;BME280;17465;47.934;33.430;2022-09-17T10:49:41;99193.22;;;22.76;100.00
30714;BME280;17465;47.934;33.430;2022-09-17T10:52:50;99192.11;;;22.70;100.00
30714;BME280;17465;47.934;33.430;2022-09-17T10:55:30;99190.20;;;22.75;100.00
30714;BME280;17465;47.934;33.430;2022-09-17T11:05:03;99165.35;;;24.61;98.57
30714;BME280;17465;47.934;33.430;2022-09-17T11:08:24;99170.70;;;25.85;93.92
30714;BME280;17465;47.934;33.430;2022-09-17T11:11:03;99170.70;;;25.85;93.92
30714;BME280;17465;47.934;33.430;2022-09-17T11:16:59;99154.37;;;25.34;88.98
30714;BME280;17465;47.934;33.430;2022-09-17T11:20:06;99152.56;;;26.32;91.61
30714;BME280;17465;47.934;33.430;2022-09-17T11:25:25;99156.31;;;26.57;78.25
30714;BME280;17465;47.934;33.430;2022-09-17T11:36:57;99132.14;;;26.49;73.65
30714;BME280;17465;47.934;33.430;2022-09-17T11:39:43;99113.95;;;25.58;76.32
30714;BME280;17465;47.934;33.430;2022-09-17T11:42:29;99113.95;;;25.58;76.32
30714;BME280;17465;47.934;33.430;2022-09-17T11:45:00;99098.00;;;24.81;85.44
30714;BME280;17465;47.934;33.430;2022-09-17T11:47:33;99098.00;;;24.81;85.44
30714;BME280;17465;47.934;33.430;2022-09-17T11:55:52;99101.66;;;28.25;73.04
30714;BME280;17465;47.934;33.430;2022-09-17T11:58:12;99098.70;;;29.15;70.77
30714;BME280;17465;47.934;33.430;2022-09-17T12:00:51;99089.31;;;29.45;66.90
30714;BME280;17465;47.934;33.430;2022-09-17T12:06:13;99086.20;;;29.92;61.63
30714;BME280;17465;47.934;33.430;2022-09-17T12:09:24;99085.75;;;29.89;63.67
30714;BME280;17465;47.934;33.430;2022-09-17T12:12:05;99073.13;;;28.77;63.41
30714;BME280;17465;47.934;33.430;2022-09-17T12:14:47;99055.83;;;29.15;62.33
30714;BME280;17465;47.934;33.430;2022-09-17T12:17:27;99055.83;;;29.15;62.33
30714;BME280;17465;47.934;33.430;2022-09-17T12:20:31;99052.83;;;27.72;72.66
30714;BME280;17465;47.934;33.430;2022-09-17T12:22:46;99043.02;;;27.27;74.67
30714;BME280;17465;47.934;33.430;2022-09-17T12:25:21;99036.95;;;27.37;72.12
30714;BME280;17465;47.934;33.430;2022-09-17T12:28:06;99021.45;;;27.38;75.07
30714;BME280;17465;47.934;33.430;2022-09-17T12:31:01;99017.18;;;27.72;72.01
30714;BME280;17465;47.934;33.430;2022-09-17T12:42:10;98995.19;;;26.72;76.99
30714;BME280;17465;47.934;33.430;2022-09-17T12:45:18;98977.72;;;25.87;80.63
30714;BME280;17465;47.934;33.430;2022-09-17T12:57:01;98952.05;;;23.95;93.08
30714;BME280;17465;47.934;33.430;2022-09-17T12:59:36;98952.05;;;23.95;93.08
30714;BME280;17465;47.934;33.430;2022-09-17T13:11:30;98954.89;;;23.03;100.00
30714;BME280;17465;47.934;33.430;2022-09-17T13:14:50;99001.56;;;22.27;100.00
30714;BME280;17465;47.934;33.430;2022-09-17T13:21:06;98948.91;;;19.54;100.00
30714;BME280;17465;47.934;33.430;2022-09-17T13:23:47;98904.77;;;19.34;100.00
30714;BME280;17465;47.934;33.430;2022-09-17T13:26:21;98904.77;;;19.34;100.00
30714;BME280;17465;47.934;33.430;2022-09-17T13:28:53;98922.39;;;19.48;100.00
30714;BME280;17465;47.934;33.430;2022-09-17T13:37:02;98892.11;;;19.34;100.00
30714;BME280;17465;47.934;33.430;2022-09-17T13:39:50;98892.52;;;19.29;100.00
30714;BME280;17465;47.934;33.430;2022-09-17T13:42:30;98883.66;;;19.34;100.00
30714;BME280;17465;47.934;33.430;2022-09-17T13:45:05;98884.25;;;19.37;100.00
30714;BME280;17465;47.934;33.430;2022-09-17T13:47:59;98861.09;;;19.44;100.00
30714;BME280;17465;47.934;33.430;2022-09-17T13:50:32;98850.07;;;19.42;100.00
30714;BME280;17465;47.934;33.430;2022-09-17T13:58:31;98834.73;;;19.50;100.00
30714;BME280;17465;47.934;33.430;2022-09-17T14:01:05;98840.13;;;19.56;100.00
30714;BME280;17465;47.934;33.430;2022-09-17T14:03:59;98842.05;;;19.69;100.00
30714;BME280;17465;47.934;33.430;2022-09-17T14:19:47;98849.17;;;19.84;100.00
30714;BME280;17465;47.934;33.430;2022-09-17T14:22:26;98851.63;;;19.82;100.00
30714;BME280;17465;47.934;33.430;2022-09-17T14:25:14;98851.63;;;19.82;100.00
30714;BME280;17465;47.934;33.430;2022-09-17T14:27:50;98846.97;;;19.58;100.00
30714;BME280;17465;47.934;33.430;2022-09-17T14:30:48;98846.97;;;19.58;100.00
30714;BME280;17465;47.934;33.430;2022-09-17T14:36:24;98882.77;;;19.83;100.00
30714;BME280;17465;47.934;33.430;2022-09-17T14:38:58;98891.28;;;19.73;100.00
30714;BME280;17465;47.934;33.430;2022-09-17T14:41:45;98891.28;;;19.73;100.00
30714;BME280;17465;47.934;33.430;2022-09-17T14:44:29;98886.38;;;19.58;100.00
30714;BME280;17465;47.934;33.430;2022-09-17T14:47:20;98884.25;;;19.37;100.00
30714;BME280;17465;47.934;33.430;2022-09-17T14:53:19;98857.83;;;19.56;100.00
30714;BME280;17465;47.934;33.430;2022-09-17T14:56:21;98848.21;;;19.50;100.00
30714;BME280;17465;47.934;33.430;2022-09-17T14:58:56;98850.63;;;19.48;100.00
30714;BME280;17465;47.934;33.430;2022-09-17T15:01:54;98852.16;;;19.27;100.00
30714;BME280;17465;47.934;33.430;2022-09-17T15:04:28;98852.16;;;19.27;100.00
30714;BME280;17465;47.934;33.430;2022-09-17T15:07:08;98853.14;;;19.29;100.00
30714;BME280;17465;47.934;33.430;2022-09-17T15:09:44;98854.18;;;19.27;100.00
30714;BME280;17465;47.934;33.430;2022-09-17T15:12:17;98854.18;;;19.27;100.00
30714;BME280;17465;47.934;33.430;2022-09-17T15:14:50;98853.95;;;19.29;100.00
30714;BME280;17465;47.934;33.430;2022-09-17T15:17:29;98860.73;;;19.39;100.00
30714;BME280;17465;47.934;33.430;2022-09-17T15:20:05;98869.03;;;19.27;100.00
30714;BME280;17465;47.934;33.430;2022-09-17T15:22:38;98869.03;;;19.27;100.00
30714;BME280;17465;47.934;33.430;2022-09-17T15:25:24;98872.86;;;19.25;100.00
30714;BME280;17465;47.934;33.430;2022-09-17T15:28:02;98863.63;;;19.21;100.00
30714;BME280;17465;47.934;33.430;2022-09-17T15:30:31;98866.69;;;19.16;100.00
30714;BME280;17465;47.934;33.430;2022-09-17T15:33:02;98866.69;;;19.16;100.00
30714;BME280;17465;47.934;33.430;2022-09-17T15:38:52;98876.68;;;19.23;100.00
30714;BME280;17465;47.934;33.430;2022-09-17T15:41:53;98874.91;;;19.18;100.00
30714;BME280;17465;47.934;33.430;2022-09-17T15:44:22;98867.50;;;19.13;100.00
30714;BME280;17465;47.934;33.430;2022-09-17T15:46:53;98858.85;;;19.05;100.00
30714;BME280;17465;47.934;33.430;2022-09-17T15:49:33;98856.23;;;19.06;100.00
30714;BME280;17465;47.934;33.430;2022-09-17T15:52:32;98856.23;;;19.06;100.00
30714;BME280;17465;47.934;33.430;2022-09-17T15:55:28;98847.19;;;19.10;100.00
30714;BME280;17465;47.934;33.430;2022-09-17T15:57:49;98847.19;;;19.10;100.00
30714;BME280;17465;47.934;33.430;2022-09-17T16:00:21;98848.41;;;19.02;100.00
30714;BME280;17465;47.934;33.430;2022-09-17T16:02:54;98840.02;;;18.91;100.00
30714;BME280;17465;47.934;33.430;2022-09-17T16:12:26;98837.73;;;19.08;100.00
30714;BME280;17465;47.934;33.430;2022-09-17T16:15:11;98841.57;;;19.17;100.00
30714;BME280;17465;47.934;33.430;2022-09-17T16:17:47;98830.88;;;19.19;100.00
30714;BME280;17465;47.934;33.430;2022-09-17T16:23:31;98821.63;;;19.22;100.00
30714;BME280;17465;47.934;33.430;2022-09-17T16:26:05;98821.63;;;19.22;100.00
30714;BME280;17465;47.934;33.430;2022-09-17T16:28:40;98811.42;;;19.17;100.00
30714;BME280;17465;47.934;33.430;2022-09-17T16:31:14;98808.31;;;19.30;100.00
30714;BME280;17465;47.934;33.430;2022-09-17T16:33:46;98819.15;;;19.35;100.00
30714;BME280;17465;47.934;33.430;2022-09-17T16:36:21;98816.76;;;19.30;100.00
30714;BME280;17465;47.934;33.430;2022-09-17T16:38:52;98816.76;;;19.30;100.00
30714;BME280;17465;47.934;33.430;2022-09-17T16:41:25;98820.98;;;19.30;100.00
30714;BME280;17465;47.934;33.430;2022-09-17T16:44:08;98814.80;;;19.27;100.00
30714;BME280;17465;47.934;33.430;2022-09-17T16:49:32;98812.43;;;19.15;100.00
30714;BME280;17465;47.934;33.430;2022-09-17T16:52:01;98807.62;;;19.16;100.00
30714;BME280;17465;47.934;33.430;2022-09-17T16:54:45;98799.35;;;19.20;100.00
30714;BME280;17465;47.934;33.430;2022-09-17T16:58:02;98802.53;;;19.25;100.00
30714;BME280;17465;47.934;33.430;2022-09-17T17:01:14;98802.53;;;19.25;100.00